createdAt,value
2018-09-15T00:01:42.114Z,99.90
2018-09-15T00:11:43.669Z,99.90
2018-09-15T00:21:44.932Z,99.90
2018-09-15T00:31:46.191Z,99.90
2018-09-15T00:41:47.456Z,99.90
2018-09-15T00:51:49.571Z,99.90
2018-09-15T01:01:50.909Z,99.90
2018-09-15T01:11:52.266Z,99.90
2018-09-15T01:21:53.539Z,99.90
2018-09-15T01:31:54.809Z,99.90
2018-09-15T01:41:56.156Z,99.90
2018-09-15T01:51:57.471Z,99.90
2018-09-15T02:01:58.892Z,99.90
2018-09-15T02:12:00.216Z,99.90
2018-09-15T02:22:01.526Z,99.90
2018-09-15T02:32:03.587Z,99.90
2018-09-15T02:42:04.869Z,99.90
2018-09-15T02:52:06.118Z,99.90
2018-09-15T03:02:08.163Z,99.90
2018-09-15T03:12:09.441Z,99.90
2018-09-15T03:22:10.746Z,99.90
2018-09-15T03:32:12.074Z,99.90
2018-09-15T03:42:13.421Z,99.90
2018-09-15T04:02:21.687Z,99.90
2018-09-15T04:12:22.955Z,99.90
2018-09-15T04:22:24.962Z,99.90
2018-09-15T04:32:26.222Z,99.90
2018-09-15T04:42:27.491Z,99.90
2018-09-15T04:52:28.884Z,99.90
2018-09-15T05:02:31.910Z,99.90
2018-09-15T05:12:33.312Z,99.90
2018-09-15T05:22:34.546Z,99.90
2018-09-15T05:32:35.837Z,99.90
2018-09-15T05:42:39.200Z,99.90
2018-09-15T05:52:40.468Z,99.90
2018-09-15T06:02:41.728Z,99.90
2018-09-15T06:12:43.122Z,99.90
2018-09-15T06:22:45.164Z,99.90
2018-09-15T06:32:46.450Z,99.90
2018-09-15T06:42:47.719Z,99.90
2018-09-15T06:52:49.015Z,99.90
2018-09-15T07:02:50.281Z,99.90
2018-09-15T07:12:51.572Z,99.90
2018-09-15T07:22:52.832Z,99.90
2018-09-15T07:32:54.121Z,99.90
2018-09-15T07:42:55.418Z,99.90
2018-09-15T07:52:56.714Z,99.90
2018-09-15T08:02:58.008Z,99.90
2018-09-15T08:12:59.414Z,99.90
2018-09-15T08:23:00.670Z,93.20
2018-09-15T08:33:02.684Z,83.90
2018-09-15T08:43:04.753Z,72.80
2018-09-15T08:53:06.207Z,73.20
2018-09-15T09:03:12.803Z,41.90
2018-09-15T09:13:14.067Z,41.80
2018-09-15T09:23:15.317Z,38.30
2018-09-15T09:33:17.432Z,33.20
2018-09-15T09:43:18.627Z,33.20
2018-09-15T09:53:20.652Z,31.80
2018-09-15T10:03:21.898Z,31.80
2018-09-15T10:13:23.134Z,34.20
2018-09-15T10:23:24.375Z,36.00
2018-09-15T10:33:25.635Z,33.50
2018-09-15T10:43:26.903Z,32.50
2018-09-15T10:53:28.190Z,45.60
2018-09-15T11:03:29.459Z,51.20
2018-09-15T11:13:30.785Z,56.50
2018-09-15T11:23:32.042Z,56.40
2018-09-15T11:33:33.354Z,58.50
2018-09-15T11:43:34.653Z,58.90
2018-09-15T11:53:35.901Z,59.60
2018-09-15T12:03:37.186Z,64.30
2018-09-15T12:13:38.522Z,62.40
2018-09-15T12:23:39.832Z,66.70
2018-09-15T12:33:41.120Z,62.70
2018-09-15T12:43:42.385Z,63.90
2018-09-15T12:53:43.670Z,60.10
2018-09-15T13:03:45.220Z,60.30
2018-09-15T13:13:46.489Z,62.20
2018-09-15T13:23:47.776Z,62.90
2018-09-15T13:33:49.066Z,64.70
2018-09-15T13:43:50.313Z,62.80
2018-09-15T13:53:51.554Z,63.20
2018-09-15T14:03:52.803Z,61.90
2018-09-15T14:13:54.066Z,59.80
2018-09-15T14:23:55.338Z,58.60
2018-09-15T14:33:56.669Z,61.10
2018-09-15T14:43:57.901Z,64.80
2018-09-15T14:53:59.242Z,64.60
2018-09-15T15:04:00.522Z,64.00
2018-09-15T15:14:01.783Z,63.70
2018-09-15T15:24:03.055Z,59.20
2018-09-15T15:34:04.312Z,61.70
2018-09-15T15:44:05.560Z,60.90
2018-09-15T15:54:06.822Z,63.40
2018-09-15T16:04:08.074Z,64.10
2018-09-15T16:14:10.122Z,72.00
2018-09-15T16:24:11.410Z,72.00
2018-09-15T16:34:12.861Z,80.00
2018-09-15T16:44:17.863Z,83.00
2018-09-15T16:54:20.182Z,99.90
2018-09-15T17:04:21.575Z,99.90
2018-09-15T17:14:23.622Z,99.90
2018-09-15T17:24:24.903Z,99.90
2018-09-15T17:34:28.937Z,99.90
2018-09-15T17:44:30.178Z,99.90
2018-09-15T17:54:31.460Z,99.90
2018-09-15T18:04:32.702Z,99.90
2018-09-15T18:14:33.977Z,99.90
2018-09-15T18:24:35.256Z,99.90
2018-09-15T18:34:39.762Z,99.90
2018-09-15T18:44:41.030Z,99.90
2018-09-15T18:54:42.305Z,99.90
2018-09-15T19:04:43.566Z,99.90
2018-09-15T19:14:44.843Z,99.90
2018-09-15T19:24:46.111Z,99.90
2018-09-15T19:34:47.362Z,99.90
2018-09-15T19:44:48.675Z,99.90
2018-09-15T19:54:50.670Z,99.90
2018-09-15T20:04:51.999Z,99.90
2018-09-15T20:14:53.223Z,99.90
2018-09-15T20:24:54.579Z,99.90
2018-09-15T20:34:55.766Z,99.90
2018-09-15T20:44:57.793Z,99.90
2018-09-15T20:54:59.046Z,99.90
2018-09-15T21:05:00.302Z,99.90
2018-09-15T21:35:15.116Z,99.90
2018-09-15T21:45:17.127Z,99.90
2018-09-15T21:55:19.130Z,99.90
2018-09-15T22:05:20.395Z,99.90
2018-09-15T22:15:21.675Z,99.90
2018-09-15T22:25:22.964Z,99.90
2018-09-15T22:55:37.159Z,99.90
2018-09-15T23:05:39.158Z,99.90
2018-09-15T23:15:40.410Z,99.90
2018-09-15T23:25:41.650Z,99.90
2018-09-15T23:35:42.893Z,99.90
2018-09-15T23:45:44.130Z,99.90
2018-09-15T23:55:45.403Z,99.90
